createdAt,value
2017-07-15T10:04:00.816Z,21.70
2017-07-15T10:06:27.119Z,21.50
2017-07-15T10:08:53.433Z,21.30
2017-07-15T10:11:19.708Z,21.10
2017-07-15T10:13:46.024Z,20.90
2017-07-15T10:16:12.300Z,20.70
2017-07-15T10:18:38.619Z,20.50
2017-07-15T10:21:04.979Z,20.40
2017-07-15T10:23:32.072Z,20.40
2017-07-15T10:25:59.229Z,20.50
2017-07-15T10:28:25.629Z,20.50
2017-07-15T10:30:52.002Z,20.60
2017-07-15T10:33:18.397Z,20.60
2017-07-15T10:35:44.834Z,20.60
2017-07-15T10:38:11.193Z,20.50
2017-07-15T10:40:38.352Z,20.40
2017-07-15T10:43:04.804Z,20.40
2017-07-15T10:45:31.188Z,20.40
2017-07-15T10:47:58.316Z,20.40
2017-07-15T10:50:24.792Z,20.40
2017-07-15T10:52:51.225Z,20.70
2017-07-15T10:55:17.607Z,21.00
2017-07-15T10:57:44.041Z,21.20
2017-07-15T11:02:57.375Z,21.60
2017-07-15T11:05:23.872Z,21.70
2017-07-15T11:07:50.142Z,21.80
2017-07-15T11:10:17.195Z,21.90
2017-07-15T11:12:43.471Z,21.80
2017-07-15T11:15:09.764Z,21.80
2017-07-15T11:17:36.092Z,21.80
2017-07-15T11:20:03.810Z,21.70
2017-07-15T11:22:30.128Z,21.70
2017-07-15T11:24:56.708Z,21.50
2017-07-15T11:27:23.884Z,21.40
2017-07-15T11:29:50.227Z,21.30
2017-07-15T11:32:16.605Z,21.30
2017-07-15T11:34:44.009Z,21.30
2017-07-15T11:37:11.161Z,21.20
2017-07-15T11:39:37.565Z,21.20
2017-07-15T11:42:03.944Z,21.20
2017-07-15T11:44:31.373Z,21.10
2017-07-15T11:46:57.796Z,21.30
2017-07-15T11:49:24.978Z,21.40
2017-07-15T11:51:51.425Z,21.40
2017-07-15T13:16:14.077Z,21.20
2017-07-15T13:18:40.521Z,37.30
2017-07-15T13:21:06.900Z,38.50
2017-07-15T13:23:33.268Z,39.70
2017-07-15T13:26:01.493Z,37.90
2017-07-15T13:28:27.906Z,37.90
2017-07-15T13:30:54.369Z,36.10
2017-07-15T13:33:21.512Z,32.50
2017-07-15T13:35:47.899Z,32.40
2017-07-15T13:38:14.300Z,30.70
2017-07-15T13:40:40.708Z,30.30
2017-07-15T13:43:07.070Z,31.70
2017-07-15T13:45:33.640Z,33.00
2017-07-15T13:48:00.008Z,33.80
2017-07-15T13:50:26.376Z,34.60
2017-07-15T13:52:52.760Z,34.80
2017-07-15T13:55:19.196Z,34.10
2017-07-15T13:57:45.593Z,32.80
2017-07-15T14:00:12.012Z,31.70
2017-07-15T14:02:38.596Z,31.60
2017-07-15T14:05:05.745Z,33.20
2017-07-15T14:07:32.152Z,33.20
2017-07-15T14:09:59.290Z,31.40
2017-07-15T14:12:25.664Z,31.30
2017-07-15T14:14:52.065Z,30.30
2017-07-15T14:17:18.469Z,29.10
2017-07-15T14:19:45.945Z,28.10
2017-07-15T14:22:13.072Z,26.20
2017-07-15T14:24:39.472Z,26.10
2017-07-15T14:27:05.840Z,25.30
2017-07-15T14:29:32.245Z,24.70
2017-07-15T14:31:59.377Z,23.80
2017-07-15T14:34:25.758Z,23.70
2017-07-15T14:36:52.141Z,23.40
2017-07-15T14:39:18.536Z,23.10
2017-07-15T14:41:45.667Z,22.80
2017-07-15T14:44:12.076Z,22.80
2017-07-15T14:46:39.200Z,24.30
2017-07-15T14:49:05.535Z,24.20
2017-07-15T14:51:32.660Z,27.20
2017-07-15T14:53:59.852Z,27.80
2017-07-15T14:56:26.220Z,27.80
2017-07-15T14:58:52.603Z,28.10
2017-07-15T15:01:18.993Z,27.80
2017-07-15T15:03:45.389Z,27.40
2017-07-15T15:06:11.795Z,26.90
2017-07-15T15:08:38.136Z,26.30
2017-07-15T15:11:04.499Z,25.80
2017-07-15T15:13:30.997Z,25.30
2017-07-15T15:15:57.396Z,24.90
2017-07-15T15:18:23.870Z,24.50
2017-07-15T15:20:50.332Z,24.10
2017-07-15T15:23:16.699Z,23.60
2017-07-15T15:25:43.844Z,23.00
2017-07-15T15:28:10.224Z,23.00
2017-07-15T15:30:36.636Z,22.80
2017-07-15T15:33:03.027Z,22.80
2017-07-15T15:35:29.461Z,23.00
2017-07-15T15:37:55.842Z,23.10
2017-07-15T15:40:22.212Z,23.10
2017-07-15T15:42:49.376Z,23.20
2017-07-15T15:45:15.836Z,23.20
2017-07-15T15:47:42.208Z,23.40
2017-07-15T15:50:08.652Z,23.60
2017-07-15T15:52:35.028Z,23.80
2017-07-15T15:55:01.401Z,23.90
2017-07-15T15:57:27.829Z,24.10
2017-07-15T15:59:54.177Z,24.30
2017-07-15T16:02:20.560Z,24.50
2017-07-15T16:04:46.973Z,24.60
2017-07-15T16:07:13.371Z,24.70
2017-07-15T16:09:39.749Z,24.70
2017-07-15T16:12:06.137Z,24.70
2017-07-15T16:14:32.505Z,24.60
2017-07-15T16:16:58.900Z,24.60
2017-07-15T16:19:25.298Z,24.60
2017-07-15T16:21:51.685Z,24.50
2017-07-15T16:24:18.035Z,24.40
2017-07-15T16:26:44.475Z,24.30
2017-07-15T16:29:11.565Z,24.10
2017-07-15T16:31:37.985Z,24.10
2017-07-15T16:34:05.116Z,24.20
2017-07-15T16:36:31.499Z,24.20
2017-07-15T16:38:57.866Z,24.20
2017-07-15T16:41:24.304Z,24.20
2017-07-15T16:43:51.432Z,23.90
2017-07-15T16:46:18.600Z,23.70
2017-07-15T16:48:45.033Z,23.70
2017-07-15T16:51:11.430Z,23.60
2017-07-15T16:53:37.772Z,23.50
2017-07-15T16:56:04.950Z,23.40
2017-07-15T16:58:31.317Z,23.30
2017-07-15T17:00:57.752Z,23.30
2017-07-15T17:03:24.160Z,23.20
2017-07-15T17:05:50.571Z,23.20
2017-07-15T17:08:16.984Z,23.20
2017-07-15T17:10:43.421Z,23.10
2017-07-15T17:13:09.825Z,23.00
2017-07-15T17:15:36.272Z,22.90
2017-07-15T17:18:02.688Z,22.80
2017-07-15T17:20:29.829Z,22.60
2017-07-15T17:22:56.933Z,22.60
2017-07-15T17:25:24.108Z,22.50
2017-07-15T17:27:50.512Z,22.50
2017-07-15T17:30:17.648Z,22.40
2017-07-15T17:32:44.448Z,22.40
2017-07-15T17:35:10.872Z,22.40
2017-07-15T17:37:37.235Z,22.40
2017-07-15T17:40:03.644Z,22.40
2017-07-15T17:42:30.053Z,22.40
2017-07-15T17:44:56.433Z,22.40
2017-07-15T17:47:22.821Z,22.40
2017-07-15T17:49:49.193Z,22.40
2017-07-15T17:52:16.352Z,22.30
2017-07-15T17:54:42.731Z,22.20
2017-07-15T17:57:09.905Z,22.00
2017-07-15T17:59:36.305Z,22.00
2017-07-15T18:02:02.729Z,21.90
2017-07-15T18:04:29.109Z,21.80
2017-07-15T18:06:56.260Z,21.60
2017-07-15T18:09:22.730Z,21.60
2017-07-15T18:11:49.157Z,21.50
2017-07-15T18:14:16.613Z,21.30
2017-07-15T19:38:39.707Z,21.10
2017-07-15T19:41:07.032Z,17.90
2017-07-15T19:43:33.643Z,17.90
2017-07-15T19:46:00.161Z,17.90
2017-07-15T19:48:26.575Z,17.80
2017-07-15T19:50:53.069Z,17.80
2017-07-15T19:53:20.229Z,17.70
2017-07-15T19:55:46.941Z,17.70
2017-07-15T19:58:14.992Z,17.60
2017-07-15T20:00:41.666Z,17.60
2017-07-15T20:03:09.030Z,17.50
2017-07-15T20:05:35.634Z,17.50
2017-07-15T20:08:02.278Z,17.50
2017-07-15T20:10:28.877Z,17.40
2017-07-15T20:12:55.513Z,17.40
2017-07-15T20:15:22.151Z,17.30
2017-07-15T20:17:48.715Z,17.30
2017-07-15T20:20:15.254Z,17.20
2017-07-15T20:22:41.891Z,17.20
2017-07-15T20:25:08.364Z,17.20
2017-07-15T20:27:34.791Z,17.20
2017-07-15T20:30:01.240Z,17.20
2017-07-15T20:32:27.640Z,17.20
2017-07-15T20:34:54.001Z,17.10
2017-07-15T20:37:21.181Z,17.10
2017-07-15T20:39:47.653Z,17.00
2017-07-15T20:42:13.999Z,17.00
2017-07-15T20:44:40.419Z,17.00
2017-07-15T20:47:06.896Z,17.00
2017-07-15T20:49:33.308Z,17.00
2017-07-15T20:52:05.926Z,17.00
2017-07-15T20:54:32.340Z,17.00
2017-07-15T20:56:58.744Z,16.90
2017-07-15T20:59:25.185Z,16.90
2017-07-15T21:01:51.558Z,16.90
2017-07-15T21:04:17.973Z,16.90
2017-07-15T21:06:44.402Z,16.80
2017-07-15T21:09:11.561Z,16.80
2017-07-15T21:11:38.041Z,16.80
2017-07-15T21:14:04.403Z,16.80
2017-07-15T21:16:30.833Z,16.80
2017-07-15T21:18:57.281Z,16.80
2017-07-15T21:21:23.709Z,16.80
2017-07-15T21:23:50.076Z,16.80
2017-07-15T21:26:16.534Z,16.80
2017-07-15T21:28:42.945Z,16.80
2017-07-15T21:31:09.383Z,16.80
2017-07-15T21:33:36.975Z,16.80
2017-07-15T21:36:03.380Z,16.70
2017-07-15T21:38:29.856Z,16.80
2017-07-15T21:40:56.325Z,16.80
2017-07-15T21:43:22.752Z,16.80
2017-07-15T21:45:49.140Z,16.80
2017-07-15T21:48:15.643Z,16.70
2017-07-15T21:50:42.069Z,16.70
2017-07-15T21:53:08.489Z,16.60
2017-07-15T21:55:34.883Z,16.60
2017-07-15T21:58:01.281Z,16.60
2017-07-15T22:00:29.504Z,16.40
2017-07-15T22:02:55.916Z,16.40
2017-07-15T22:05:22.309Z,16.40
2017-07-15T22:07:48.696Z,16.40
2017-07-15T22:10:15.083Z,16.30
2017-07-15T22:12:41.510Z,16.30
2017-07-15T22:15:07.973Z,16.30
2017-07-15T22:17:34.416Z,16.20
2017-07-15T22:20:00.834Z,16.20
2017-07-15T22:22:27.242Z,16.20
2017-07-15T22:24:53.689Z,16.20
2017-07-15T22:27:20.061Z,16.20
2017-07-15T22:29:46.405Z,16.20
2017-07-15T22:32:12.917Z,16.20
2017-07-15T22:34:39.357Z,16.20
2017-07-15T22:37:06.476Z,16.20
2017-07-15T22:39:32.876Z,16.10
2017-07-15T22:41:59.284Z,16.20
2017-07-15T22:44:28.403Z,16.20
2017-07-15T22:46:55.096Z,16.20
2017-07-15T22:49:21.456Z,16.20
2017-07-15T22:51:48.649Z,16.20
2017-07-15T22:54:15.034Z,16.20
2017-07-15T22:56:41.433Z,16.20
2017-07-15T22:59:07.809Z,16.10
2017-07-15T23:01:34.217Z,16.10
2017-07-15T23:04:00.839Z,16.10
2017-07-15T23:06:27.285Z,16.10
2017-07-15T23:08:54.215Z,16.10
2017-07-15T23:11:20.809Z,16.10
2017-07-15T23:13:47.197Z,16.10
2017-07-15T23:16:13.591Z,16.10
2017-07-15T23:18:40.014Z,16.00
2017-07-15T23:21:06.405Z,16.00
2017-07-15T23:23:32.892Z,16.00
2017-07-15T23:25:59.276Z,16.00
2017-07-15T23:28:25.732Z,16.00
2017-07-15T23:30:52.145Z,16.00
2017-07-15T23:33:18.600Z,16.00
2017-07-15T23:35:45.731Z,16.00
2017-07-15T23:38:12.189Z,16.00
2017-07-15T23:40:38.520Z,16.00
2017-07-15T23:43:04.903Z,16.00
2017-07-15T23:45:31.277Z,16.00
2017-07-15T23:47:57.679Z,16.10
2017-07-15T23:50:24.101Z,16.10
2017-07-15T23:52:51.284Z,16.10
2017-07-15T23:55:17.664Z,16.10
2017-07-15T23:57:44.036Z,16.10
